createdAt,value
2023-04-14T00:01:29.204Z,10.60
2023-04-14T00:06:31.349Z,10.60
2023-04-14T00:11:33.111Z,10.50
2023-04-14T00:16:35.577Z,10.60
2023-04-14T00:21:37.452Z,10.60
2023-04-14T00:26:39.418Z,10.80
2023-04-14T00:31:41.425Z,10.70
2023-04-14T00:36:43.522Z,10.90
2023-04-14T00:41:45.338Z,11.10
2023-04-14T00:46:48.192Z,11.10
2023-04-14T00:51:50.278Z,11.20
2023-04-14T00:56:53.853Z,11.30
2023-04-14T01:01:57.206Z,11.30
2023-04-14T01:06:59.159Z,11.20
2023-04-14T01:12:14.131Z,11.20
2023-04-14T01:17:36.241Z,11.20
2023-04-14T01:22:48.070Z,11.10
2023-04-14T01:27:49.781Z,11.10
2023-04-14T01:32:54.437Z,11.10
2023-04-14T01:38:04.929Z,11.10
2023-04-14T01:43:11.981Z,11.10
2023-04-14T01:48:14.562Z,11.10
2023-04-14T01:53:18.264Z,10.90
2023-04-14T01:58:21.808Z,10.90
2023-04-14T02:03:24.272Z,10.70
2023-04-14T02:08:28.016Z,10.70
2023-04-14T02:13:32.181Z,10.60
2023-04-14T02:18:34.294Z,10.60
2023-04-14T02:23:36.067Z,10.70
2023-04-14T02:28:46.244Z,10.70
2023-04-14T02:33:55.011Z,10.70
2023-04-14T02:39:01.033Z,10.70
2023-04-14T02:44:15.326Z,10.70
2023-04-14T02:49:18.362Z,10.70
2023-04-14T02:54:21.273Z,10.70
2023-04-14T02:59:23.772Z,10.70
2023-04-14T03:04:26.818Z,10.70
2023-04-14T03:09:30.528Z,10.70
2023-04-14T03:14:33.299Z,10.80
2023-04-14T03:19:36.527Z,10.70
2023-04-14T03:24:40.431Z,10.70
2023-04-14T03:29:46.965Z,10.70
2023-04-14T03:34:54.335Z,10.70
2023-04-14T03:40:00.585Z,10.70
2023-04-14T03:45:03.655Z,10.70
2023-04-14T03:50:09.361Z,10.70
2023-04-14T03:55:12.581Z,10.70
2023-04-14T04:00:15.937Z,10.70
2023-04-14T04:05:18.410Z,10.80
2023-04-14T04:10:21.228Z,10.80
2023-04-14T04:15:23.274Z,10.80
2023-04-14T04:20:26.516Z,10.80
2023-04-14T04:25:28.540Z,10.80
2023-04-14T04:30:32.437Z,10.80
2023-04-14T04:35:36.127Z,10.90
2023-04-14T04:40:41.452Z,10.90
2023-04-14T04:45:56.645Z,10.90
2023-04-14T04:50:58.644Z,10.90
2023-04-14T04:56:00.574Z,10.90
2023-04-14T05:01:10.017Z,11.00
2023-04-14T05:06:12.647Z,11.00
2023-04-14T05:11:14.450Z,10.90
2023-04-14T05:16:17.263Z,10.90
2023-04-14T05:21:19.494Z,11.00
2023-04-14T05:26:44.545Z,10.90
2023-04-14T05:31:44.398Z,10.80
2023-04-14T05:36:47.724Z,10.80
2023-04-14T05:41:49.755Z,11.00
2023-04-14T05:46:51.833Z,11.20
2023-04-14T05:51:56.852Z,11.30
2023-04-14T05:56:58.659Z,11.30
2023-04-14T06:02:04.953Z,11.40
2023-04-14T06:07:07.208Z,11.50
2023-04-14T06:12:09.320Z,11.60
2023-04-14T06:17:11.058Z,11.80
2023-04-14T06:22:16.801Z,11.90
2023-04-14T06:27:18.521Z,12.00
2023-04-14T06:32:20.494Z,12.10
2023-04-14T06:37:22.746Z,12.10
2023-04-14T06:42:24.766Z,12.00
2023-04-14T06:47:26.638Z,12.00
2023-04-14T06:52:28.564Z,12.10
2023-04-14T06:57:30.321Z,12.20
2023-04-14T07:02:32.133Z,12.40
2023-04-14T07:07:40.024Z,12.60
2023-04-14T07:12:42.160Z,12.80
2023-04-14T07:17:43.904Z,12.80
2023-04-14T07:22:46.410Z,12.70
2023-04-14T07:28:02.184Z,13.20
2023-04-14T07:33:05.041Z,13.20
2023-04-14T07:38:08.001Z,12.80
2023-04-14T07:43:10.166Z,12.70
2023-04-14T07:48:11.889Z,12.70
2023-04-14T07:53:13.754Z,12.60
2023-04-14T07:58:16.100Z,12.50
2023-04-14T08:03:18.259Z,12.60
2023-04-14T08:08:20.101Z,12.70
2023-04-14T08:13:21.959Z,13.00
2023-04-14T08:18:23.716Z,13.00
2023-04-14T08:23:25.864Z,12.70
2023-04-14T08:28:28.861Z,12.80
2023-04-14T08:33:31.069Z,13.10
2023-04-14T08:38:33.278Z,13.10
2023-04-14T08:43:36.242Z,13.30
2023-04-14T08:48:39.195Z,13.20
2023-04-14T08:53:46.015Z,13.70
2023-04-14T08:58:48.533Z,13.80
2023-04-14T09:03:51.312Z,14.90
2023-04-14T09:08:53.882Z,15.40
2023-04-14T09:13:58.553Z,15.50
2023-04-14T09:19:06.959Z,14.90
2023-04-14T09:24:12.025Z,14.80
2023-04-14T09:29:14.112Z,15.40
2023-04-14T09:34:18.473Z,15.70
2023-04-14T09:39:20.602Z,16.20
2023-04-14T09:44:23.209Z,16.20
2023-04-14T09:49:25.659Z,16.70
2023-04-14T09:54:27.884Z,17.00
2023-04-14T09:59:36.818Z,15.70
2023-04-14T10:04:38.808Z,15.20
2023-04-14T10:09:41.694Z,15.20
2023-04-14T10:14:44.496Z,15.00
2023-04-14T10:19:46.727Z,15.60
2023-04-14T10:24:51.109Z,15.50
2023-04-14T10:29:53.321Z,15.70
2023-04-14T10:35:05.307Z,15.10
2023-04-14T10:40:08.193Z,15.00
2023-04-14T10:45:12.847Z,15.10
2023-04-14T10:50:17.938Z,14.80
2023-04-14T10:55:28.177Z,14.80
2023-04-14T11:00:32.498Z,15.60
2023-04-14T11:05:35.147Z,16.30
2023-04-14T11:10:37.136Z,15.70
2023-04-14T11:15:58.483Z,15.40
2023-04-14T11:21:07.374Z,15.70
2023-04-14T11:26:10.300Z,15.10
2023-04-14T11:31:14.755Z,15.10
2023-04-14T11:36:16.631Z,14.60
2023-04-14T11:41:19.559Z,14.30
2023-04-14T11:46:22.403Z,14.10
2023-04-14T11:51:34.995Z,14.30
2023-04-14T11:56:37.473Z,14.60
2023-04-14T12:01:39.473Z,14.50
2023-04-14T12:06:41.330Z,14.60
2023-04-14T12:11:53.928Z,14.80
2023-04-14T12:16:56.084Z,14.80
2023-04-14T12:21:57.876Z,15.20
2023-04-14T12:26:59.624Z,15.10
2023-04-14T12:32:10.416Z,15.10
2023-04-14T12:37:12.738Z,14.60
2023-04-14T12:42:14.754Z,14.80
2023-04-14T12:47:35.420Z,15.10
2023-04-14T12:52:39.281Z,15.50
2023-04-14T12:57:41.273Z,15.80
2023-04-14T13:02:45.525Z,16.10
2023-04-14T13:07:48.639Z,15.70
2023-04-14T13:12:50.859Z,15.80
2023-04-14T13:17:52.614Z,16.00
2023-04-14T13:22:54.545Z,15.80
2023-04-14T13:27:56.305Z,15.60
2023-04-14T13:32:58.554Z,15.90
2023-04-14T13:38:02.003Z,15.90
2023-04-14T13:43:04.979Z,15.40
2023-04-14T13:48:07.068Z,15.40
2023-04-14T13:53:09.158Z,15.30
2023-04-14T13:58:11.313Z,15.00
2023-04-14T14:03:13.513Z,14.90
2023-04-14T14:08:15.925Z,14.70
2023-04-14T14:13:18.656Z,14.50
2023-04-14T14:18:20.573Z,14.40
2023-04-14T14:23:22.661Z,14.50
2023-04-14T14:28:24.445Z,14.60
2023-04-14T14:33:26.196Z,14.50
2023-04-14T14:38:28.345Z,14.50
2023-04-14T14:43:30.552Z,14.50
2023-04-14T14:48:32.388Z,14.50
2023-04-14T14:53:34.154Z,14.40
2023-04-14T14:58:36.110Z,14.40
2023-04-14T15:03:38.382Z,14.40
2023-04-14T15:08:40.287Z,14.50
2023-04-14T15:13:45.601Z,14.50
2023-04-14T15:18:47.623Z,14.60
2023-04-14T15:23:49.510Z,14.40
2023-04-14T15:28:51.292Z,14.40
2023-04-14T15:33:54.773Z,14.30
2023-04-14T15:38:56.713Z,14.30
2023-04-14T15:43:58.630Z,14.40
2023-04-14T15:49:00.431Z,14.30
2023-04-14T15:54:02.404Z,14.20
2023-04-14T15:59:04.317Z,14.10
2023-04-14T16:04:06.391Z,14.00
2023-04-14T16:09:08.470Z,13.90
2023-04-14T16:14:10.258Z,13.80
2023-04-14T16:19:15.113Z,13.80
2023-04-14T16:24:16.859Z,13.70
2023-04-14T16:29:18.584Z,13.60
2023-04-14T16:34:20.512Z,13.60
2023-04-14T16:39:22.350Z,13.50
2023-04-14T16:44:24.280Z,13.40
2023-04-14T16:49:26.088Z,13.30
2023-04-14T16:54:27.969Z,13.20
2023-04-14T16:59:30.815Z,12.90
2023-04-14T17:04:32.939Z,12.80
2023-04-14T17:09:34.966Z,12.70
2023-04-14T17:14:37.261Z,12.70
2023-04-14T17:19:39.142Z,12.80
2023-04-14T17:24:41.007Z,12.70
2023-04-14T17:29:42.704Z,12.70
2023-04-14T17:34:47.350Z,12.60
2023-04-14T17:39:49.669Z,12.50
2023-04-14T17:44:52.013Z,12.50
2023-04-14T17:49:54.493Z,12.50
2023-04-14T17:54:56.688Z,12.50
2023-04-14T17:59:59.010Z,12.50
2023-04-14T18:05:01.196Z,12.40
2023-04-14T18:10:03.597Z,12.40
2023-04-14T18:15:06.225Z,12.30
2023-04-14T18:20:10.745Z,12.20
2023-04-14T18:25:12.689Z,11.90
2023-04-14T18:30:15.294Z,11.90
2023-04-14T18:35:17.076Z,11.80
2023-04-14T18:40:19.762Z,11.90
2023-04-14T18:45:22.011Z,11.70
2023-04-14T18:50:23.726Z,11.60
2023-04-14T18:55:25.626Z,11.60
2023-04-14T19:00:30.139Z,11.70
2023-04-14T19:05:32.048Z,11.70
2023-04-14T19:10:34.331Z,11.60
2023-04-14T19:15:36.654Z,11.70
2023-04-14T19:20:38.568Z,11.70
2023-04-14T19:25:41.658Z,11.80
2023-04-14T19:30:46.043Z,11.80
2023-04-14T19:35:49.181Z,11.80
2023-04-14T19:40:51.059Z,11.70
2023-04-14T19:45:53.664Z,11.80
2023-04-14T19:50:55.521Z,11.70
2023-04-14T19:55:58.880Z,11.70
2023-04-14T20:01:01.221Z,11.70
2023-04-14T20:06:03.414Z,11.60
2023-04-14T20:11:05.150Z,11.50
2023-04-14T20:16:07.184Z,11.50
2023-04-14T20:21:09.348Z,11.40
2023-04-14T20:26:11.443Z,11.40
2023-04-14T20:31:13.831Z,11.40
2023-04-14T20:36:16.268Z,11.30
2023-04-14T20:41:18.322Z,11.20
2023-04-14T20:46:22.237Z,11.10
2023-04-14T20:51:24.194Z,11.10
2023-04-14T20:56:28.572Z,11.10
2023-04-14T21:01:30.723Z,11.00
2023-04-14T21:06:33.161Z,11.00
2023-04-14T21:11:34.900Z,10.90
2023-04-14T21:16:36.793Z,10.90
2023-04-14T21:21:39.045Z,10.80
2023-04-14T21:26:41.148Z,10.80
2023-04-14T21:31:43.725Z,10.70
2023-04-14T21:36:47.191Z,10.60
2023-04-14T21:41:49.305Z,10.60
2023-04-14T21:46:51.294Z,10.50
2023-04-14T21:51:53.616Z,10.40
2023-04-14T21:56:56.648Z,10.50
2023-04-14T22:01:59.198Z,10.40
2023-04-14T22:07:02.545Z,10.40
2023-04-14T22:12:05.012Z,10.50
2023-04-14T22:17:06.741Z,10.40
2023-04-14T22:22:08.881Z,10.30
2023-04-14T22:27:10.658Z,10.30
2023-04-14T22:32:12.525Z,10.30
2023-04-14T22:37:14.623Z,10.30
2023-04-14T22:42:16.596Z,10.30
2023-04-14T22:47:18.943Z,10.20
2023-04-14T22:52:20.905Z,10.10
2023-04-14T22:57:23.022Z,10.10
2023-04-14T23:02:24.982Z,10.10
2023-04-14T23:07:26.796Z,10.10
2023-04-14T23:12:28.568Z,10.00
2023-04-14T23:17:30.996Z,10.00
2023-04-14T23:22:32.922Z,10.00
2023-04-14T23:27:34.670Z,10.00
2023-04-14T23:32:36.702Z,9.90
2023-04-14T23:37:38.912Z,9.90
2023-04-14T23:42:40.630Z,9.80
2023-04-14T23:47:42.588Z,9.80
2023-04-14T23:52:44.308Z,9.60
2023-04-14T23:57:46.997Z,9.60
